createdAt,value
2024-01-20T00:02:16.947Z,7.40
2024-01-20T00:04:43.873Z,7.90
2024-01-20T00:07:10.767Z,7.70
2024-01-20T00:09:46.044Z,8.07
2024-01-20T00:12:17.397Z,7.80
2024-01-20T00:14:44.225Z,8.63
2024-01-20T00:17:20.784Z,8.63
2024-01-20T00:19:54.118Z,7.83
2024-01-20T00:22:22.544Z,7.27
2024-01-20T00:24:50.417Z,8.13
2024-01-20T00:27:17.360Z,8.53
2024-01-20T00:29:45.183Z,7.47
2024-01-20T00:32:12.809Z,7.70
2024-01-20T00:34:51.401Z,8.03
2024-01-20T00:37:26.442Z,7.33
2024-01-20T00:39:53.164Z,8.33
2024-01-20T00:42:19.879Z,7.63
2024-01-20T00:44:46.636Z,8.37
2024-01-20T00:47:13.549Z,7.83
2024-01-20T00:49:40.661Z,7.80
2024-01-20T00:52:07.572Z,7.63
2024-01-20T00:54:34.495Z,7.67
2024-01-20T00:57:01.464Z,8.23
2024-01-20T00:59:28.287Z,8.33
2024-01-20T01:01:55.131Z,7.93
2024-01-20T01:04:21.902Z,8.30
2024-01-20T01:06:49.904Z,8.53
2024-01-20T01:09:16.809Z,8.70
2024-01-20T01:11:43.663Z,9.33
2024-01-20T01:14:10.572Z,9.07
2024-01-20T01:16:37.441Z,8.53
2024-01-20T01:19:04.287Z,8.27
2024-01-20T01:21:31.079Z,8.27
2024-01-20T01:23:57.934Z,8.30
2024-01-20T01:26:26.401Z,8.20
2024-01-20T01:28:54.454Z,7.70
2024-01-20T01:31:21.275Z,7.90
2024-01-20T01:33:48.542Z,8.10
2024-01-20T01:36:15.891Z,8.93
2024-01-20T01:38:42.723Z,8.73
2024-01-20T01:41:09.662Z,8.97
2024-01-20T01:43:36.541Z,8.37
2024-01-20T01:46:04.204Z,7.70
2024-01-20T01:48:31.980Z,8.30
2024-01-20T01:50:58.998Z,7.40
2024-01-20T01:53:26.074Z,7.73
2024-01-20T01:55:54.027Z,8.73
2024-01-20T01:58:20.843Z,8.23
2024-01-20T02:00:49.135Z,9.00
2024-01-20T02:03:17.262Z,8.17
2024-01-20T02:05:44.357Z,8.83
2024-01-20T02:08:11.659Z,8.70
2024-01-20T02:10:40.653Z,9.17
2024-01-20T02:13:07.664Z,10.37
2024-01-20T02:15:36.387Z,9.60
2024-01-20T02:18:03.636Z,9.50
2024-01-20T02:20:30.429Z,10.53
2024-01-20T02:22:57.222Z,9.20
2024-01-20T02:25:24.072Z,9.87
2024-01-20T02:27:51.215Z,9.23
2024-01-20T02:30:17.964Z,9.40
2024-01-20T02:32:44.920Z,8.73
2024-01-20T02:35:11.820Z,10.47
2024-01-20T02:37:38.559Z,8.77
2024-01-20T02:40:06.056Z,8.10
2024-01-20T02:42:32.797Z,9.20
2024-01-20T02:44:59.559Z,8.07
2024-01-20T02:47:26.293Z,8.57
2024-01-20T02:49:53.042Z,8.73
2024-01-20T02:52:19.822Z,9.27
2024-01-20T02:54:46.538Z,9.43
2024-01-20T02:57:13.296Z,9.13
2024-01-20T02:59:40.049Z,9.17
2024-01-20T03:02:06.822Z,9.33
2024-01-20T03:04:33.605Z,9.83
2024-01-20T03:07:00.406Z,9.33
2024-01-20T03:09:27.263Z,8.60
2024-01-20T03:11:54.146Z,8.57
2024-01-20T03:14:20.906Z,8.50
2024-01-20T03:16:47.768Z,8.57
2024-01-20T03:19:14.586Z,8.43
2024-01-20T03:21:41.363Z,8.83
2024-01-20T03:24:08.256Z,8.83
2024-01-20T03:26:35.031Z,8.63
2024-01-20T03:29:01.751Z,9.33
2024-01-20T03:31:28.508Z,8.57
2024-01-20T03:33:55.356Z,9.27
2024-01-20T03:36:22.466Z,9.10
2024-01-20T03:38:49.301Z,10.03
2024-01-20T03:41:17.946Z,9.03
2024-01-20T03:43:44.670Z,9.77
2024-01-20T03:46:11.404Z,9.73
2024-01-20T03:48:38.344Z,10.30
2024-01-20T03:51:05.261Z,10.10
2024-01-20T03:53:32.047Z,10.07
2024-01-20T03:55:58.762Z,9.77
2024-01-20T03:58:25.451Z,9.53
2024-01-20T04:00:52.188Z,11.20
2024-01-20T04:03:19.429Z,10.27
2024-01-20T04:05:48.399Z,10.00
2024-01-20T04:08:15.391Z,9.80
2024-01-20T04:10:42.144Z,9.63
2024-01-20T04:13:09.044Z,10.33
2024-01-20T04:15:35.829Z,9.87
2024-01-20T04:18:02.849Z,10.00
2024-01-20T04:20:29.954Z,8.83
2024-01-20T04:22:56.652Z,8.50
2024-01-20T04:25:23.386Z,9.60
2024-01-20T04:27:50.085Z,10.03
2024-01-20T04:30:16.871Z,10.30
2024-01-20T04:32:44.338Z,9.00
2024-01-20T04:35:11.093Z,9.50
2024-01-20T04:37:39.849Z,9.50
2024-01-20T04:40:07.265Z,9.47
2024-01-20T04:42:34.194Z,8.90
2024-01-20T04:45:04.506Z,8.40
2024-01-20T04:47:32.438Z,8.93
2024-01-20T04:49:59.192Z,7.10
2024-01-20T04:52:26.213Z,7.10
2024-01-20T04:54:53.725Z,6.37
2024-01-20T04:57:22.038Z,6.90
2024-01-20T04:59:49.136Z,7.20
2024-01-20T05:02:16.721Z,7.77
2024-01-20T05:04:43.584Z,7.63
2024-01-20T05:07:10.795Z,7.77
2024-01-20T05:09:37.662Z,7.93
2024-01-20T05:12:04.584Z,8.00
2024-01-20T05:14:31.507Z,8.73
2024-01-20T05:16:58.302Z,8.47
2024-01-20T05:19:25.420Z,8.03
2024-01-20T05:21:52.292Z,13.03
2024-01-20T05:24:19.028Z,11.40
2024-01-20T05:26:45.824Z,11.17
2024-01-20T05:29:12.675Z,9.70
2024-01-20T05:31:39.381Z,8.40
2024-01-20T05:34:06.283Z,7.77
2024-01-20T05:36:33.228Z,8.80
2024-01-20T05:39:00.088Z,8.50
2024-01-20T05:41:26.888Z,8.70
2024-01-20T05:43:53.694Z,9.30
2024-01-20T05:46:21.479Z,8.40
2024-01-20T05:48:48.821Z,7.60
2024-01-20T05:51:15.873Z,7.47
2024-01-20T05:53:42.719Z,8.07
2024-01-20T05:56:09.468Z,9.87
2024-01-20T05:58:36.164Z,12.27
2024-01-20T06:01:03.063Z,13.20
2024-01-20T06:03:29.903Z,10.37
2024-01-20T06:05:57.373Z,10.20
2024-01-20T06:08:24.165Z,9.50
2024-01-20T06:10:51.535Z,9.50
2024-01-20T06:13:18.245Z,9.90
2024-01-20T06:15:45.006Z,10.37
2024-01-20T06:18:11.807Z,9.47
2024-01-20T06:20:39.080Z,10.50
2024-01-20T06:23:05.910Z,11.70
2024-01-20T06:25:32.693Z,11.00
2024-01-20T06:27:59.522Z,11.93
2024-01-20T06:30:26.265Z,12.57
2024-01-20T06:32:53.218Z,12.50
2024-01-20T06:35:21.076Z,11.50
2024-01-20T06:37:47.841Z,10.90
2024-01-20T06:40:14.828Z,12.43
2024-01-20T06:42:41.585Z,12.50
2024-01-20T06:45:08.661Z,12.33
2024-01-20T06:47:35.549Z,12.57
2024-01-20T06:50:02.394Z,13.80
2024-01-20T06:52:31.997Z,12.90
2024-01-20T06:54:58.746Z,13.10
2024-01-20T06:57:25.540Z,13.63
2024-01-20T06:59:52.260Z,13.57
2024-01-20T07:02:18.962Z,13.23
2024-01-20T07:04:45.660Z,13.23
2024-01-20T07:07:13.067Z,12.53
2024-01-20T07:09:41.121Z,13.43
2024-01-20T07:12:09.027Z,12.70
2024-01-20T07:14:36.686Z,13.77
2024-01-20T07:17:05.571Z,13.63
2024-01-20T07:19:32.400Z,14.13
2024-01-20T07:21:59.148Z,14.17
2024-01-20T07:24:26.060Z,15.33
2024-01-20T07:26:52.816Z,14.37
2024-01-20T07:29:19.847Z,14.10
2024-01-20T07:31:46.675Z,13.60
2024-01-20T07:34:13.513Z,13.50
2024-01-20T07:36:40.348Z,13.07
2024-01-20T07:39:07.935Z,13.57
2024-01-20T07:41:34.758Z,13.37
2024-01-20T07:44:01.479Z,13.90
2024-01-20T07:46:28.299Z,13.60
2024-01-20T07:48:55.065Z,13.57
2024-01-20T07:51:22.201Z,14.80
2024-01-20T07:53:48.970Z,18.40
2024-01-20T07:56:17.339Z,16.90
2024-01-20T07:58:44.078Z,13.63
2024-01-20T08:01:10.892Z,13.57
2024-01-20T08:03:37.705Z,14.93
2024-01-20T08:06:04.798Z,13.70
2024-01-20T08:08:31.558Z,14.50
2024-01-20T08:10:58.262Z,14.47
2024-01-20T08:13:25.011Z,13.30
2024-01-20T08:15:51.772Z,15.33
2024-01-20T08:18:18.736Z,15.27
2024-01-20T08:20:45.597Z,15.03
2024-01-20T08:23:12.348Z,14.53
2024-01-20T08:25:39.111Z,14.63
2024-01-20T08:28:06.098Z,14.40
2024-01-20T08:30:33.509Z,15.50
2024-01-20T08:33:03.556Z,14.67
2024-01-20T08:35:32.076Z,15.63
2024-01-20T08:37:58.909Z,14.73
2024-01-20T08:40:25.850Z,16.33
2024-01-20T08:42:52.713Z,16.13
2024-01-20T08:45:19.550Z,16.43
2024-01-20T08:47:46.374Z,15.13
2024-01-20T08:50:13.141Z,13.87
2024-01-20T08:52:40.862Z,14.13
2024-01-20T08:55:08.283Z,13.70
2024-01-20T08:57:35.717Z,13.50
2024-01-20T09:00:02.753Z,15.37
2024-01-20T09:02:29.617Z,17.77
2024-01-20T09:04:56.457Z,15.03
2024-01-20T09:07:23.214Z,15.33
2024-01-20T09:09:49.984Z,16.23
2024-01-20T09:12:16.892Z,15.70
2024-01-20T09:14:44.139Z,15.10
2024-01-20T09:17:10.931Z,14.17
2024-01-20T09:19:37.892Z,13.63
2024-01-20T09:22:04.962Z,14.43
2024-01-20T09:24:31.799Z,14.93
2024-01-20T09:26:58.681Z,15.87
2024-01-20T09:29:25.516Z,14.20
2024-01-20T09:31:52.250Z,13.60
2024-01-20T09:34:19.335Z,13.43
2024-01-20T09:36:46.568Z,14.60
2024-01-20T09:39:13.688Z,13.73
2024-01-20T09:41:42.108Z,12.80
2024-01-20T09:44:09.998Z,13.53
2024-01-20T09:46:36.937Z,13.37
2024-01-20T09:49:03.973Z,14.03
2024-01-20T09:51:32.836Z,14.40
2024-01-20T09:54:00.656Z,14.83
2024-01-20T09:56:28.756Z,20.53
2024-01-20T09:59:04.085Z,17.30
2024-01-20T10:01:32.235Z,14.10
2024-01-20T10:04:04.337Z,18.17
2024-01-20T10:06:31.798Z,13.63
2024-01-20T10:08:59.016Z,15.37
2024-01-20T10:11:26.986Z,14.20
2024-01-20T10:13:53.763Z,16.20
2024-01-20T10:16:22.095Z,13.00
2024-01-20T10:18:50.077Z,13.47
2024-01-20T10:21:17.022Z,14.73
2024-01-20T10:23:43.967Z,12.10
2024-01-20T10:26:10.716Z,15.10
2024-01-20T10:28:37.593Z,14.60
2024-01-20T10:31:10.781Z,13.87
2024-01-20T10:33:38.384Z,13.37
2024-01-20T10:36:06.381Z,13.17
2024-01-20T10:38:40.080Z,14.23
2024-01-20T10:41:08.897Z,14.30
2024-01-20T10:43:41.224Z,14.97
2024-01-20T10:46:25.419Z,13.50
2024-01-20T10:48:55.345Z,13.10
2024-01-20T10:51:28.358Z,14.80
2024-01-20T10:53:59.117Z,13.37
2024-01-20T10:56:28.042Z,13.17
2024-01-20T10:59:18.621Z,14.67
2024-01-20T11:01:46.552Z,14.23
2024-01-20T11:04:20.066Z,13.10
2024-01-20T11:06:47.661Z,13.07
2024-01-20T11:09:24.305Z,12.67
2024-01-20T11:12:10.812Z,12.10
2024-01-20T11:14:37.917Z,12.80
2024-01-20T11:17:14.893Z,12.23
2024-01-20T11:19:41.870Z,13.60
2024-01-20T11:22:30.198Z,12.60
2024-01-20T11:24:57.468Z,12.70
2024-01-20T11:27:24.780Z,12.97
2024-01-20T11:29:51.644Z,12.60
2024-01-20T11:32:22.368Z,13.73
2024-01-20T11:34:49.734Z,13.00
2024-01-20T11:37:16.923Z,12.63
2024-01-20T11:39:43.705Z,12.93
2024-01-20T11:42:11.720Z,12.27
2024-01-20T11:44:39.346Z,12.40
2024-01-20T11:47:06.590Z,11.90
2024-01-20T11:49:36.192Z,12.20
2024-01-20T11:52:03.447Z,11.90
2024-01-20T11:54:30.237Z,13.03
2024-01-20T11:56:58.571Z,12.10
2024-01-20T11:59:25.727Z,17.53
2024-01-20T12:01:52.873Z,11.63
2024-01-20T12:04:20.407Z,11.77
2024-01-20T12:06:48.039Z,10.53
2024-01-20T12:09:14.876Z,11.10
2024-01-20T12:11:42.389Z,10.90
2024-01-20T12:14:09.641Z,10.90
2024-01-20T12:16:36.906Z,12.00
2024-01-20T12:19:04.177Z,11.07
2024-01-20T12:21:31.230Z,11.20
2024-01-20T12:23:58.011Z,13.30
2024-01-20T12:26:25.430Z,10.63
2024-01-20T12:28:54.291Z,10.63
2024-01-20T12:31:23.038Z,9.87
2024-01-20T12:33:50.826Z,11.67
2024-01-20T12:36:18.021Z,10.47
2024-01-20T12:38:44.991Z,10.67
2024-01-20T12:41:11.912Z,10.70
2024-01-20T12:43:38.811Z,11.00
2024-01-20T12:46:05.632Z,10.53
2024-01-20T12:48:33.261Z,11.93
2024-01-20T12:51:01.270Z,11.80
2024-01-20T12:53:28.329Z,11.40
2024-01-20T12:55:55.079Z,11.57
2024-01-20T12:58:21.828Z,11.50
2024-01-20T13:00:48.848Z,10.80
2024-01-20T13:03:15.746Z,10.87
2024-01-20T13:05:44.622Z,10.90
2024-01-20T13:08:11.586Z,11.40
2024-01-20T13:10:38.303Z,11.70
2024-01-20T13:13:05.028Z,11.73
2024-01-20T13:15:31.947Z,11.33
2024-01-20T13:17:58.979Z,12.03
2024-01-20T13:20:25.797Z,10.77
2024-01-20T13:22:53.009Z,11.90
2024-01-20T13:25:19.786Z,12.17
2024-01-20T13:27:47.057Z,11.03
2024-01-20T13:30:14.184Z,10.87
2024-01-20T13:32:41.300Z,11.37
2024-01-20T13:35:08.626Z,11.77
2024-01-20T13:37:35.386Z,12.43
2024-01-20T13:40:05.631Z,12.07
2024-01-20T13:42:32.477Z,11.37
2024-01-20T13:44:59.264Z,11.53
2024-01-20T13:47:26.267Z,11.70
2024-01-20T13:49:53.165Z,12.30
2024-01-20T13:52:19.965Z,10.90
2024-01-20T13:54:46.987Z,11.33
2024-01-20T13:57:17.308Z,12.50
2024-01-20T13:59:44.070Z,11.57
2024-01-20T14:02:10.905Z,12.63
2024-01-20T14:04:37.793Z,11.73
2024-01-20T14:07:06.206Z,10.87
2024-01-20T14:09:33.478Z,11.63
2024-01-20T14:12:00.355Z,11.10
2024-01-20T14:14:27.647Z,11.73
2024-01-20T14:16:56.390Z,12.83
2024-01-20T14:19:24.063Z,12.70
2024-01-20T14:21:50.933Z,12.70
2024-01-20T14:24:17.833Z,12.43
2024-01-20T14:26:44.549Z,12.83
2024-01-20T14:29:11.963Z,12.63
2024-01-20T14:31:52.898Z,12.43
2024-01-20T14:34:21.177Z,12.70
2024-01-20T14:36:52.254Z,12.80
2024-01-20T14:39:19.673Z,13.73
2024-01-20T14:41:47.083Z,14.13
2024-01-20T14:44:14.038Z,12.93
2024-01-20T14:46:41.032Z,14.20
2024-01-20T14:49:09.012Z,14.73
2024-01-20T14:51:36.385Z,16.87
2024-01-20T14:54:04.426Z,15.13
2024-01-20T14:56:32.287Z,14.43
2024-01-20T14:59:04.130Z,14.63
2024-01-20T15:01:32.001Z,13.67
2024-01-20T15:03:59.010Z,15.03
2024-01-20T15:06:26.943Z,14.63
2024-01-20T15:08:54.459Z,16.17
2024-01-20T15:11:21.407Z,16.33
2024-01-20T15:13:48.149Z,16.17
2024-01-20T15:16:15.028Z,15.93
2024-01-20T15:18:41.813Z,16.43
2024-01-20T15:21:08.855Z,16.33
2024-01-20T15:23:35.808Z,16.00
2024-01-20T15:26:02.840Z,14.37
2024-01-20T15:28:29.709Z,16.07
2024-01-20T15:30:56.527Z,16.20
2024-01-20T15:33:23.613Z,17.13
2024-01-20T15:35:50.494Z,18.27
2024-01-20T15:38:17.385Z,15.60
2024-01-20T15:40:44.816Z,14.40
2024-01-20T15:43:11.611Z,14.33
2024-01-20T15:45:38.924Z,13.80
2024-01-20T15:48:06.731Z,13.33
2024-01-20T15:50:33.823Z,13.60
2024-01-20T15:53:01.383Z,14.50
2024-01-20T15:55:28.216Z,14.07
2024-01-20T15:57:55.194Z,14.63
2024-01-20T16:00:22.209Z,15.03
2024-01-20T16:02:49.917Z,15.63
2024-01-20T16:05:16.922Z,15.47
2024-01-20T16:07:44.215Z,16.80
2024-01-20T16:10:11.713Z,19.03
2024-01-20T16:12:38.632Z,16.27
2024-01-20T16:15:07.660Z,16.97
2024-01-20T16:17:37.290Z,16.97
2024-01-20T16:20:04.517Z,16.43
2024-01-20T16:22:33.013Z,16.63
2024-01-20T16:25:00.159Z,17.27
2024-01-20T16:27:26.886Z,19.13
2024-01-20T16:29:53.615Z,18.93
2024-01-20T16:32:20.543Z,21.43
2024-01-20T16:34:47.592Z,24.37
2024-01-20T16:37:14.436Z,25.20
2024-01-20T16:39:41.347Z,23.80
2024-01-20T16:42:08.266Z,22.37
2024-01-20T16:44:35.206Z,23.87
2024-01-20T16:47:02.252Z,22.80
2024-01-20T16:49:29.278Z,22.30
2024-01-20T16:51:58.104Z,22.77
2024-01-20T16:54:26.163Z,22.53
2024-01-20T16:56:53.362Z,21.60
2024-01-20T16:59:20.249Z,20.43
2024-01-20T17:01:47.026Z,21.30
2024-01-20T17:04:14.974Z,18.23
2024-01-20T17:06:42.123Z,16.30
2024-01-20T17:09:09.172Z,18.00
2024-01-20T17:11:36.017Z,16.17
2024-01-20T17:14:04.921Z,16.77
2024-01-20T17:16:35.621Z,16.50
2024-01-20T17:19:04.397Z,17.03
2024-01-20T17:21:32.041Z,17.67
2024-01-20T17:23:59.285Z,18.00
2024-01-20T17:26:30.892Z,17.33
2024-01-20T17:28:58.738Z,17.97
2024-01-20T17:31:34.842Z,17.63
2024-01-20T17:34:04.661Z,17.93
2024-01-20T17:36:32.086Z,18.90
2024-01-20T17:39:01.610Z,16.57
2024-01-20T17:41:28.795Z,17.80
2024-01-20T17:43:55.551Z,35.97
2024-01-20T17:46:22.315Z,33.60
2024-01-20T17:48:49.779Z,36.40
2024-01-20T17:51:16.928Z,28.10
2024-01-20T17:53:43.781Z,22.87
2024-01-20T17:56:10.688Z,19.10
2024-01-20T17:58:37.438Z,18.97
2024-01-20T18:01:06.165Z,18.23
2024-01-20T18:03:34.171Z,18.63
2024-01-20T18:06:01.278Z,17.07
2024-01-20T18:08:28.297Z,20.07
2024-01-20T18:10:55.349Z,19.13
2024-01-20T18:13:22.869Z,21.03
2024-01-20T18:15:49.806Z,21.37
2024-01-20T18:18:16.828Z,24.73
2024-01-20T18:20:44.551Z,23.83
2024-01-20T18:23:11.446Z,25.17
2024-01-20T18:25:38.469Z,24.00
2024-01-20T18:28:07.150Z,23.13
2024-01-20T18:30:34.924Z,23.37
2024-01-20T18:33:01.910Z,21.53
2024-01-20T18:35:28.795Z,22.27
2024-01-20T18:37:55.778Z,20.10
2024-01-20T18:40:22.655Z,19.43
2024-01-20T18:42:51.086Z,25.57
2024-01-20T18:45:19.390Z,23.63
2024-01-20T18:47:47.133Z,30.00
2024-01-20T18:50:14.685Z,32.60
2024-01-20T18:52:41.809Z,33.73
2024-01-20T18:55:09.637Z,33.33
2024-01-20T18:57:36.545Z,32.10
2024-01-20T19:00:04.796Z,26.77
2024-01-20T19:02:32.764Z,24.37
2024-01-20T19:04:59.841Z,23.83
2024-01-20T19:07:26.795Z,23.70
2024-01-20T19:09:53.593Z,23.93
2024-01-20T19:12:21.368Z,24.00
2024-01-20T19:14:49.039Z,25.50
2024-01-20T19:17:16.167Z,24.00
2024-01-20T19:19:46.309Z,23.30
2024-01-20T19:22:13.394Z,22.67
2024-01-20T19:24:40.500Z,21.30
2024-01-20T19:27:10.895Z,22.20
2024-01-20T19:29:37.903Z,22.30
2024-01-20T19:32:05.012Z,21.67
2024-01-20T19:34:32.017Z,19.93
2024-01-20T19:36:58.933Z,20.47
2024-01-20T19:39:25.776Z,24.10
2024-01-20T19:41:52.710Z,21.43
2024-01-20T19:44:19.552Z,22.10
2024-01-20T19:46:46.330Z,25.50
2024-01-20T19:49:13.229Z,36.30
2024-01-20T19:51:42.176Z,25.17
2024-01-20T19:54:09.634Z,23.47
2024-01-20T19:56:42.492Z,22.23
2024-01-20T19:59:10.019Z,21.17
2024-01-20T20:01:47.360Z,20.33
2024-01-20T20:04:18.532Z,21.13
2024-01-20T20:06:50.537Z,21.33
2024-01-20T20:09:19.137Z,19.43
2024-01-20T20:11:46.375Z,19.17
2024-01-20T20:14:13.885Z,19.90
2024-01-20T20:16:41.554Z,20.37
2024-01-20T20:19:13.093Z,20.30
2024-01-20T20:21:41.243Z,20.00
2024-01-20T20:24:09.686Z,19.70
2024-01-20T20:26:40.866Z,18.57
2024-01-20T20:29:08.952Z,19.17
2024-01-20T20:31:36.025Z,21.20
2024-01-20T20:34:02.897Z,20.37
2024-01-20T20:36:29.962Z,21.00
2024-01-20T20:38:57.400Z,19.27
2024-01-20T20:41:25.694Z,20.50
2024-01-20T20:43:52.409Z,20.10
2024-01-20T20:46:19.283Z,21.90
2024-01-20T20:48:46.355Z,19.13
2024-01-20T20:51:13.234Z,21.63
2024-01-20T20:53:40.051Z,18.40
2024-01-20T20:56:07.134Z,18.93
2024-01-20T20:58:33.923Z,20.27
2024-01-20T21:01:01.924Z,19.43
2024-01-20T21:03:28.848Z,18.67
2024-01-20T21:05:55.847Z,17.17
2024-01-20T21:08:22.733Z,19.20
2024-01-20T21:10:49.553Z,20.93
2024-01-20T21:13:16.356Z,19.90
2024-01-20T21:15:43.857Z,20.43
2024-01-20T21:18:11.238Z,19.87
2024-01-20T21:20:38.202Z,20.10
2024-01-20T21:23:05.294Z,19.00
2024-01-20T21:25:32.735Z,19.43
2024-01-20T21:27:59.824Z,19.27
2024-01-20T21:30:28.892Z,18.27
2024-01-20T21:32:55.846Z,20.67
2024-01-20T21:35:23.040Z,20.73
2024-01-20T21:37:49.947Z,21.60
2024-01-20T21:40:16.679Z,20.77
2024-01-20T21:42:43.464Z,21.13
2024-01-20T21:45:10.926Z,21.83
2024-01-20T21:47:37.849Z,21.33
2024-01-20T21:50:05.407Z,23.27
2024-01-20T21:52:32.135Z,21.27
2024-01-20T21:54:59.885Z,21.97
2024-01-20T21:57:26.685Z,20.23
2024-01-20T21:59:53.509Z,21.00
2024-01-20T22:02:23.451Z,20.73
2024-01-20T22:04:50.366Z,19.80
2024-01-20T22:07:17.139Z,20.03
2024-01-20T22:09:43.914Z,19.70
2024-01-20T22:12:10.823Z,26.07
2024-01-20T22:14:37.557Z,23.93
2024-01-20T22:17:04.634Z,21.33
2024-01-20T22:19:32.455Z,20.20
2024-01-20T22:21:59.231Z,20.93
2024-01-20T22:24:26.054Z,21.27
2024-01-20T22:26:53.408Z,20.70
2024-01-20T22:29:28.489Z,20.67
2024-01-20T22:31:58.520Z,18.00
2024-01-20T22:34:30.912Z,17.47
2024-01-20T22:36:58.876Z,17.10
2024-01-20T22:39:25.668Z,16.47
2024-01-20T22:41:52.565Z,19.23
2024-01-20T22:44:19.423Z,20.53
2024-01-20T22:46:47.567Z,20.00
2024-01-20T22:49:14.492Z,24.33
2024-01-20T22:51:41.433Z,26.07
2024-01-20T22:54:08.299Z,25.60
2024-01-20T22:56:35.023Z,24.20
2024-01-20T22:59:01.818Z,24.93
2024-01-20T23:01:28.558Z,25.43
2024-01-20T23:03:55.355Z,23.63
2024-01-20T23:06:22.169Z,25.60
2024-01-20T23:08:52.211Z,27.23
2024-01-20T23:11:19.769Z,27.43
2024-01-20T23:13:46.751Z,25.17
2024-01-20T23:16:13.994Z,23.40
2024-01-20T23:18:40.991Z,23.30
2024-01-20T23:21:09.423Z,20.77
2024-01-20T23:23:36.442Z,20.33
2024-01-20T23:26:05.042Z,20.77
2024-01-20T23:28:32.061Z,22.07
2024-01-20T23:30:59.992Z,22.67
2024-01-20T23:33:26.935Z,22.73
2024-01-20T23:35:53.769Z,22.43
2024-01-20T23:38:20.487Z,21.03
2024-01-20T23:40:47.214Z,20.30
2024-01-20T23:43:13.914Z,18.77
2024-01-20T23:45:40.721Z,19.60
2024-01-20T23:48:08.494Z,21.33
2024-01-20T23:50:36.281Z,21.97
2024-01-20T23:53:03.080Z,22.17
2024-01-20T23:55:30.002Z,21.17
2024-01-20T23:57:56.713Z,21.63
